sensor_id;sensor_type;location;lat;lon;timestamp;P1;durP1;ratioP1;P2;durP2;ratioP2
27145;SDS011;17980;51.744;7.190;2022-12-18T00:01:39;51.73;;;28.70;;
27145;SDS011;17980;51.744;7.190;2022-12-18T00:04:11;50.43;;;27.97;;
27145;SDS011;17980;51.744;7.190;2022-12-18T00:06:47;51.53;;;29.43;;
27145;SDS011;17980;51.744;7.190;2022-12-18T00:09:15;49.10;;;28.43;;
27145;SDS011;17980;51.744;7.190;2022-12-18T00:11:42;49.10;;;28.17;;
27145;SDS011;17980;51.744;7.190;2022-12-18T00:14:09;50.40;;;27.27;;
27145;SDS011;17980;51.744;7.190;2022-12-18T00:16:47;52.10;;;28.57;;
27145;SDS011;17980;51.744;7.190;2022-12-18T00:19:14;57.17;;;28.30;;
27145;SDS011;17980;51.744;7.190;2022-12-18T00:21:42;47.40;;;26.67;;
27145;SDS011;17980;51.744;7.190;2022-12-18T00:24:19;55.90;;;28.87;;
27145;SDS011;17980;51.744;7.190;2022-12-18T00:26:46;53.00;;;28.87;;
27145;SDS011;17980;51.744;7.190;2022-12-18T00:29:14;51.47;;;28.63;;
27145;SDS011;17980;51.744;7.190;2022-12-18T00:31:41;46.50;;;26.20;;
27145;SDS011;17980;51.744;7.190;2022-12-18T00:34:09;48.93;;;28.77;;
27145;SDS011;17980;51.744;7.190;2022-12-18T00:36:38;46.80;;;26.60;;
27145;SDS011;17980;51.744;7.190;2022-12-18T00:39:05;51.70;;;28.47;;
27145;SDS011;17980;51.744;7.190;2022-12-18T00:41:33;50.53;;;28.17;;
27145;SDS011;17980;51.744;7.190;2022-12-18T00:44:19;48.83;;;28.67;;
27145;SDS011;17980;51.744;7.190;2022-12-18T00:46:55;43.50;;;26.80;;
27145;SDS011;17980;51.744;7.190;2022-12-18T00:49:23;50.30;;;27.53;;
27145;SDS011;17980;51.744;7.190;2022-12-18T00:51:50;49.10;;;26.73;;
27145;SDS011;17980;51.744;7.190;2022-12-18T00:54:27;47.20;;;26.77;;
27145;SDS011;17980;51.744;7.190;2022-12-18T00:59:30;49.20;;;27.93;;
27145;SDS011;17980;51.744;7.190;2022-12-18T01:01:57;54.63;;;27.43;;
27145;SDS011;17980;51.744;7.190;2022-12-18T01:04:34;46.70;;;26.87;;
27145;SDS011;17980;51.744;7.190;2022-12-18T01:07:02;50.67;;;27.37;;
27145;SDS011;17980;51.744;7.190;2022-12-18T01:09:29;56.43;;;29.67;;
27145;SDS011;17980;51.744;7.190;2022-12-18T01:11:56;52.43;;;27.50;;
27145;SDS011;17980;51.744;7.190;2022-12-18T01:14:33;52.03;;;27.23;;
27145;SDS011;17980;51.744;7.190;2022-12-18T01:17:00;50.43;;;27.30;;
27145;SDS011;17980;51.744;7.190;2022-12-18T01:19:29;51.60;;;26.90;;
27145;SDS011;17980;51.744;7.190;2022-12-18T01:21:56;50.03;;;28.63;;
27145;SDS011;17980;51.744;7.190;2022-12-18T01:24:33;47.80;;;26.47;;
27145;SDS011;17980;51.744;7.190;2022-12-18T01:27:01;47.50;;;26.77;;
27145;SDS011;17980;51.744;7.190;2022-12-18T01:29:28;47.57;;;27.33;;
27145;SDS011;17980;51.744;7.190;2022-12-18T01:31:56;46.23;;;27.00;;
27145;SDS011;17980;51.744;7.190;2022-12-18T01:34:23;46.33;;;27.07;;
27145;SDS011;17980;51.744;7.190;2022-12-18T01:36:50;44.97;;;26.90;;
27145;SDS011;17980;51.744;7.190;2022-12-18T01:39:18;53.20;;;27.33;;
27145;SDS011;17980;51.744;7.190;2022-12-18T01:41:46;46.17;;;27.47;;
27145;SDS011;17980;51.744;7.190;2022-12-18T01:47:43;47.03;;;26.20;;
27145;SDS011;17980;51.744;7.190;2022-12-18T01:50:13;48.70;;;27.37;;
27145;SDS011;17980;51.744;7.190;2022-12-18T01:52:44;44.93;;;26.90;;
27145;SDS011;17980;51.744;7.190;2022-12-18T01:55:22;44.43;;;25.27;;
27145;SDS011;17980;51.744;7.190;2022-12-18T01:57:50;47.97;;;25.37;;
27145;SDS011;17980;51.744;7.190;2022-12-18T02:00:21;51.50;;;28.20;;
27145;SDS011;17980;51.744;7.190;2022-12-18T02:02:50;47.60;;;26.73;;
27145;SDS011;17980;51.744;7.190;2022-12-18T02:05:18;45.10;;;25.83;;
27145;SDS011;17980;51.744;7.190;2022-12-18T02:07:50;49.77;;;27.83;;
27145;SDS011;17980;51.744;7.190;2022-12-18T02:10:22;50.97;;;26.67;;
27145;SDS011;17980;51.744;7.190;2022-12-18T02:13:02;47.50;;;27.10;;
27145;SDS011;17980;51.744;7.190;2022-12-18T02:15:34;46.67;;;26.23;;
27145;SDS011;17980;51.744;7.190;2022-12-18T02:18:12;49.43;;;27.30;;
27145;SDS011;17980;51.744;7.190;2022-12-18T02:20:43;45.50;;;26.93;;
27145;SDS011;17980;51.744;7.190;2022-12-18T02:23:24;53.17;;;26.87;;
27145;SDS011;17980;51.744;7.190;2022-12-18T02:26:03;50.17;;;27.47;;
27145;SDS011;17980;51.744;7.190;2022-12-18T02:28:43;44.20;;;25.93;;
27145;SDS011;17980;51.744;7.190;2022-12-18T02:31:15;43.73;;;27.23;;
27145;SDS011;17980;51.744;7.190;2022-12-18T02:33:47;47.30;;;26.57;;
27145;SDS011;17980;51.744;7.190;2022-12-18T02:36:26;42.90;;;24.60;;
27145;SDS011;17980;51.744;7.190;2022-12-18T02:38:56;45.23;;;26.93;;
27145;SDS011;17980;51.744;7.190;2022-12-18T02:41:25;50.17;;;26.67;;
27145;SDS011;17980;51.744;7.190;2022-12-18T02:43:55;48.30;;;25.33;;
27145;SDS011;17980;51.744;7.190;2022-12-18T02:46:25;46.77;;;26.27;;
27145;SDS011;17980;51.744;7.190;2022-12-18T02:49:09;43.23;;;25.13;;
27145;SDS011;17980;51.744;7.190;2022-12-18T02:51:42;41.87;;;25.47;;
27145;SDS011;17980;51.744;7.190;2022-12-18T02:54:23;44.93;;;26.07;;
27145;SDS011;17980;51.744;7.190;2022-12-18T02:56:55;45.63;;;26.87;;
27145;SDS011;17980;51.744;7.190;2022-12-18T02:59:26;42.37;;;25.30;;
27145;SDS011;17980;51.744;7.190;2022-12-18T03:02:07;45.70;;;25.23;;
27145;SDS011;17980;51.744;7.190;2022-12-18T03:04:37;44.73;;;24.43;;
27145;SDS011;17980;51.744;7.190;2022-12-18T03:07:15;46.33;;;24.50;;
27145;SDS011;17980;51.744;7.190;2022-12-18T03:09:47;38.03;;;22.67;;
27145;SDS011;17980;51.744;7.190;2022-12-18T03:12:17;43.33;;;25.50;;
27145;SDS011;17980;51.744;7.190;2022-12-18T03:14:56;43.07;;;26.20;;
27145;SDS011;17980;51.744;7.190;2022-12-18T03:17:26;44.60;;;25.23;;
27145;SDS011;17980;51.744;7.190;2022-12-18T03:19:58;43.20;;;25.13;;
27145;SDS011;17980;51.744;7.190;2022-12-18T03:22:29;43.70;;;25.23;;
27145;SDS011;17980;51.744;7.190;2022-12-18T03:25:08;39.13;;;24.00;;
27145;SDS011;17980;51.744;7.190;2022-12-18T03:27:38;44.57;;;24.40;;
27145;SDS011;17980;51.744;7.190;2022-12-18T03:30:17;42.23;;;23.17;;
27145;SDS011;17980;51.744;7.190;2022-12-18T03:32:46;47.27;;;25.47;;
27145;SDS011;17980;51.744;7.190;2022-12-18T03:35:24;49.63;;;22.87;;
27145;SDS011;17980;51.744;7.190;2022-12-18T03:37:54;42.33;;;24.57;;
27145;SDS011;17980;51.744;7.190;2022-12-18T03:40:23;43.37;;;24.83;;
27145;SDS011;17980;51.744;7.190;2022-12-18T03:43:02;36.67;;;23.53;;
27145;SDS011;17980;51.744;7.190;2022-12-18T03:45:32;40.30;;;23.53;;
27145;SDS011;17980;51.744;7.190;2022-12-18T03:48:13;43.73;;;24.17;;
27145;SDS011;17980;51.744;7.190;2022-12-18T03:50:43;39.40;;;22.50;;
27145;SDS011;17980;51.744;7.190;2022-12-18T03:55:51;44.67;;;23.90;;
27145;SDS011;17980;51.744;7.190;2022-12-18T03:58:19;43.33;;;24.13;;
27145;SDS011;17980;51.744;7.190;2022-12-18T04:00:49;44.73;;;24.40;;
27145;SDS011;17980;51.744;7.190;2022-12-18T04:03:18;43.43;;;23.93;;
27145;SDS011;17980;51.744;7.190;2022-12-18T04:05:48;43.30;;;22.87;;
27145;SDS011;17980;51.744;7.190;2022-12-18T04:08:26;42.53;;;24.13;;
27145;SDS011;17980;51.744;7.190;2022-12-18T04:10:55;40.83;;;22.40;;
27145;SDS011;17980;51.744;7.190;2022-12-18T04:13:22;42.40;;;23.13;;
27145;SDS011;17980;51.744;7.190;2022-12-18T04:15:50;43.40;;;22.77;;
27145;SDS011;17980;51.744;7.190;2022-12-18T04:18:27;43.83;;;24.53;;
27145;SDS011;17980;51.744;7.190;2022-12-18T04:20:54;40.33;;;22.57;;
27145;SDS011;17980;51.744;7.190;2022-12-18T04:23:31;38.20;;;22.80;;
27145;SDS011;17980;51.744;7.190;2022-12-18T04:25:58;39.60;;;22.73;;
27145;SDS011;17980;51.744;7.190;2022-12-18T04:28:25;44.40;;;24.83;;
27145;SDS011;17980;51.744;7.190;2022-12-18T04:30:52;41.90;;;23.00;;
27145;SDS011;17980;51.744;7.190;2022-12-18T04:33:20;40.40;;;23.53;;
27145;SDS011;17980;51.744;7.190;2022-12-18T04:35:47;41.00;;;22.87;;
27145;SDS011;17980;51.744;7.190;2022-12-18T04:38:14;42.37;;;23.33;;
27145;SDS011;17980;51.744;7.190;2022-12-18T04:40:41;38.33;;;21.37;;
27145;SDS011;17980;51.744;7.190;2022-12-18T04:43:09;42.37;;;22.40;;
27145;SDS011;17980;51.744;7.190;2022-12-18T04:45:36;39.87;;;22.33;;
27145;SDS011;17980;51.744;7.190;2022-12-18T04:48:13;41.07;;;23.23;;
27145;SDS011;17980;51.744;7.190;2022-12-18T04:50:40;44.13;;;23.03;;
27145;SDS011;17980;51.744;7.190;2022-12-18T04:53:08;39.30;;;22.30;;
27145;SDS011;17980;51.744;7.190;2022-12-18T04:55:44;43.10;;;23.70;;
27145;SDS011;17980;51.744;7.190;2022-12-18T04:58:12;40.37;;;22.67;;
27145;SDS011;17980;51.744;7.190;2022-12-18T05:00:39;36.67;;;20.90;;
27145;SDS011;17980;51.744;7.190;2022-12-18T05:03:06;35.13;;;20.10;;
27145;SDS011;17980;51.744;7.190;2022-12-18T05:05:43;35.23;;;20.53;;
27145;SDS011;17980;51.744;7.190;2022-12-18T05:08:10;33.83;;;20.83;;
27145;SDS011;17980;51.744;7.190;2022-12-18T05:10:37;33.43;;;18.93;;
27145;SDS011;17980;51.744;7.190;2022-12-18T05:13:05;34.43;;;19.27;;
27145;SDS011;17980;51.744;7.190;2022-12-18T05:15:32;34.57;;;19.17;;
27145;SDS011;17980;51.744;7.190;2022-12-18T05:18:09;35.40;;;20.10;;
27145;SDS011;17980;51.744;7.190;2022-12-18T05:20:36;36.93;;;21.63;;
27145;SDS011;17980;51.744;7.190;2022-12-18T05:23:04;32.23;;;19.67;;
27145;SDS011;17980;51.744;7.190;2022-12-18T05:25:40;38.83;;;20.00;;
27145;SDS011;17980;51.744;7.190;2022-12-18T05:28:08;35.10;;;19.43;;
27145;SDS011;17980;51.744;7.190;2022-12-18T05:30:35;34.90;;;19.97;;
27145;SDS011;17980;51.744;7.190;2022-12-18T05:33:02;35.50;;;21.13;;
27145;SDS011;17980;51.744;7.190;2022-12-18T05:35:29;33.03;;;20.37;;
27145;SDS011;17980;51.744;7.190;2022-12-18T05:37:57;36.17;;;20.53;;
27145;SDS011;17980;51.744;7.190;2022-12-18T05:40:24;35.63;;;20.27;;
27145;SDS011;17980;51.744;7.190;2022-12-18T05:42:51;36.03;;;21.93;;
27145;SDS011;17980;51.744;7.190;2022-12-18T05:45:18;33.27;;;20.93;;
27145;SDS011;17980;51.744;7.190;2022-12-18T05:47:55;36.90;;;21.57;;
27145;SDS011;17980;51.744;7.190;2022-12-18T05:50:22;32.27;;;20.23;;
27145;SDS011;17980;51.744;7.190;2022-12-18T05:52:49;36.27;;;21.40;;
27145;SDS011;17980;51.744;7.190;2022-12-18T05:55:26;37.67;;;21.00;;
27145;SDS011;17980;51.744;7.190;2022-12-18T05:57:54;37.60;;;21.67;;
27145;SDS011;17980;51.744;7.190;2022-12-18T06:00:21;39.33;;;22.40;;
27145;SDS011;17980;51.744;7.190;2022-12-18T06:02:48;39.37;;;22.97;;
27145;SDS011;17980;51.744;7.190;2022-12-18T06:05:15;38.47;;;21.47;;
27145;SDS011;17980;51.744;7.190;2022-12-18T06:07:43;40.13;;;22.30;;
27145;SDS011;17980;51.744;7.190;2022-12-18T06:10:10;42.73;;;24.50;;
27145;SDS011;17980;51.744;7.190;2022-12-18T06:12:37;42.17;;;23.67;;
27145;SDS011;17980;51.744;7.190;2022-12-18T06:15:06;41.60;;;22.50;;
27145;SDS011;17980;51.744;7.190;2022-12-18T06:17:43;40.37;;;23.23;;
27145;SDS011;17980;51.744;7.190;2022-12-18T06:20:10;40.07;;;21.80;;
27145;SDS011;17980;51.744;7.190;2022-12-18T06:22:37;40.93;;;23.17;;
27145;SDS011;17980;51.744;7.190;2022-12-18T06:25:15;48.10;;;26.80;;
27145;SDS011;17980;51.744;7.190;2022-12-18T06:27:42;46.73;;;25.17;;
27145;SDS011;17980;51.744;7.190;2022-12-18T06:30:10;43.33;;;23.83;;
27145;SDS011;17980;51.744;7.190;2022-12-18T06:32:39;41.53;;;24.73;;
27145;SDS011;17980;51.744;7.190;2022-12-18T06:35:07;43.63;;;23.63;;
27145;SDS011;17980;51.744;7.190;2022-12-18T06:37:34;51.17;;;26.77;;
27145;SDS011;17980;51.744;7.190;2022-12-18T06:40:01;43.03;;;26.20;;
27145;SDS011;17980;51.744;7.190;2022-12-18T06:42:29;44.40;;;24.67;;
27145;SDS011;17980;51.744;7.190;2022-12-18T06:44:57;43.37;;;23.43;;
27145;SDS011;17980;51.744;7.190;2022-12-18T06:47:34;33.67;;;22.47;;
27145;SDS011;17980;51.744;7.190;2022-12-18T06:50:01;38.03;;;21.63;;
27145;SDS011;17980;51.744;7.190;2022-12-18T06:52:29;39.73;;;22.30;;
27145;SDS011;17980;51.744;7.190;2022-12-18T06:55:08;37.77;;;21.00;;
27145;SDS011;17980;51.744;7.190;2022-12-18T06:57:35;39.93;;;20.33;;
27145;SDS011;17980;51.744;7.190;2022-12-18T07:00:04;35.13;;;21.27;;
27145;SDS011;17980;51.744;7.190;2022-12-18T07:02:32;36.33;;;21.27;;
27145;SDS011;17980;51.744;7.190;2022-12-18T07:05:00;35.97;;;20.97;;
27145;SDS011;17980;51.744;7.190;2022-12-18T07:07:28;35.93;;;21.53;;
27145;SDS011;17980;51.744;7.190;2022-12-18T07:09:55;32.57;;;20.23;;
27145;SDS011;17980;51.744;7.190;2022-12-18T07:12:32;37.73;;;20.07;;
27145;SDS011;17980;51.744;7.190;2022-12-18T07:14:59;36.93;;;21.57;;
27145;SDS011;17980;51.744;7.190;2022-12-18T07:17:36;31.77;;;20.13;;
27145;SDS011;17980;51.744;7.190;2022-12-18T07:20:03;34.57;;;19.53;;
27145;SDS011;17980;51.744;7.190;2022-12-18T07:22:32;36.93;;;20.63;;
27145;SDS011;17980;51.744;7.190;2022-12-18T07:25:09;33.73;;;19.73;;
27145;SDS011;17980;51.744;7.190;2022-12-18T07:27:36;38.67;;;19.87;;
27145;SDS011;17980;51.744;7.190;2022-12-18T07:30:05;33.83;;;20.03;;
27145;SDS011;17980;51.744;7.190;2022-12-18T07:32:33;29.77;;;18.57;;
27145;SDS011;17980;51.744;7.190;2022-12-18T07:35:01;32.07;;;19.37;;
27145;SDS011;17980;51.744;7.190;2022-12-18T07:37:28;35.90;;;19.90;;
27145;SDS011;17980;51.744;7.190;2022-12-18T07:40:06;30.90;;;19.47;;
27145;SDS011;17980;51.744;7.190;2022-12-18T07:42:35;32.70;;;19.40;;
27145;SDS011;17980;51.744;7.190;2022-12-18T07:45:13;33.07;;;19.50;;
27145;SDS011;17980;51.744;7.190;2022-12-18T07:47:40;32.97;;;18.83;;
27145;SDS011;17980;51.744;7.190;2022-12-18T07:50:08;33.50;;;19.30;;
27145;SDS011;17980;51.744;7.190;2022-12-18T07:52:35;32.30;;;19.50;;
27145;SDS011;17980;51.744;7.190;2022-12-18T07:55:12;30.43;;;17.80;;
27145;SDS011;17980;51.744;7.190;2022-12-18T07:57:40;32.83;;;18.73;;
27145;SDS011;17980;51.744;7.190;2022-12-18T08:00:08;32.00;;;19.37;;
27145;SDS011;17980;51.744;7.190;2022-12-18T08:02:37;31.63;;;18.13;;
27145;SDS011;17980;51.744;7.190;2022-12-18T08:05:05;31.87;;;18.70;;
27145;SDS011;17980;51.744;7.190;2022-12-18T08:07:33;33.90;;;19.57;;
27145;SDS011;17980;51.744;7.190;2022-12-18T08:12:37;40.00;;;18.77;;
27145;SDS011;17980;51.744;7.190;2022-12-18T08:15:05;33.17;;;18.47;;
27145;SDS011;17980;51.744;7.190;2022-12-18T08:17:43;31.87;;;18.63;;
27145;SDS011;17980;51.744;7.190;2022-12-18T08:20:11;31.63;;;19.90;;
27145;SDS011;17980;51.744;7.190;2022-12-18T08:22:47;29.60;;;18.33;;
27145;SDS011;17980;51.744;7.190;2022-12-18T08:25:15;30.10;;;18.67;;
27145;SDS011;17980;51.744;7.190;2022-12-18T08:27:52;27.10;;;18.03;;
27145;SDS011;17980;51.744;7.190;2022-12-18T08:30:19;36.03;;;20.20;;
27145;SDS011;17980;51.744;7.190;2022-12-18T08:32:46;32.93;;;18.77;;
27145;SDS011;17980;51.744;7.190;2022-12-18T08:35:15;34.87;;;18.93;;
27145;SDS011;17980;51.744;7.190;2022-12-18T08:37:43;34.33;;;18.80;;
27145;SDS011;17980;51.744;7.190;2022-12-18T08:40:11;35.67;;;21.20;;
27145;SDS011;17980;51.744;7.190;2022-12-18T08:42:38;35.00;;;19.97;;
27145;SDS011;17980;51.744;7.190;2022-12-18T08:45:25;38.87;;;20.30;;
27145;SDS011;17980;51.744;7.190;2022-12-18T08:47:53;34.93;;;20.83;;
27145;SDS011;17980;51.744;7.190;2022-12-18T08:50:21;35.23;;;19.97;;
27145;SDS011;17980;51.744;7.190;2022-12-18T08:52:48;38.87;;;20.23;;
27145;SDS011;17980;51.744;7.190;2022-12-18T08:55:25;34.43;;;21.27;;
27145;SDS011;17980;51.744;7.190;2022-12-18T08:57:52;36.20;;;21.07;;
27145;SDS011;17980;51.744;7.190;2022-12-18T09:00:19;34.83;;;19.37;;
27145;SDS011;17980;51.744;7.190;2022-12-18T09:02:46;35.23;;;20.27;;
27145;SDS011;17980;51.744;7.190;2022-12-18T09:05:23;32.07;;;20.47;;
27145;SDS011;17980;51.744;7.190;2022-12-18T09:07:51;31.50;;;20.73;;
27145;SDS011;17980;51.744;7.190;2022-12-18T09:10:18;32.77;;;20.77;;
27145;SDS011;17980;51.744;7.190;2022-12-18T09:12:45;30.87;;;18.00;;
27145;SDS011;17980;51.744;7.190;2022-12-18T09:15:12;36.20;;;22.80;;
27145;SDS011;17980;51.744;7.190;2022-12-18T09:17:49;28.67;;;18.27;;
27145;SDS011;17980;51.744;7.190;2022-12-18T09:20:18;22.67;;;14.23;;
27145;SDS011;17980;51.744;7.190;2022-12-18T09:22:45;25.27;;;14.33;;
27145;SDS011;17980;51.744;7.190;2022-12-18T09:25:22;24.53;;;14.90;;
27145;SDS011;17980;51.744;7.190;2022-12-18T09:27:49;32.10;;;18.57;;
27145;SDS011;17980;51.744;7.190;2022-12-18T09:30:17;40.37;;;22.03;;
27145;SDS011;17980;51.744;7.190;2022-12-18T09:32:44;31.80;;;19.77;;
27145;SDS011;17980;51.744;7.190;2022-12-18T09:35:11;50.63;;;26.73;;
27145;SDS011;17980;51.744;7.190;2022-12-18T09:37:48;36.40;;;20.73;;
27145;SDS011;17980;51.744;7.190;2022-12-18T09:40:15;32.80;;;18.87;;
27145;SDS011;17980;51.744;7.190;2022-12-18T09:42:44;30.20;;;19.10;;
27145;SDS011;17980;51.744;7.190;2022-12-18T09:45:14;30.87;;;18.20;;
27145;SDS011;17980;51.744;7.190;2022-12-18T09:47:52;35.93;;;27.87;;
27145;SDS011;17980;51.744;7.190;2022-12-18T09:50:23;24.90;;;17.00;;
27145;SDS011;17980;51.744;7.190;2022-12-18T09:52:55;25.07;;;16.13;;
27145;SDS011;17980;51.744;7.190;2022-12-18T09:58:13;25.03;;;15.13;;
27145;SDS011;17980;51.744;7.190;2022-12-18T10:00:43;19.10;;;13.80;;
27145;SDS011;17980;51.744;7.190;2022-12-18T10:03:11;24.43;;;14.83;;
27145;SDS011;17980;51.744;7.190;2022-12-18T10:05:51;24.87;;;16.07;;
27145;SDS011;17980;51.744;7.190;2022-12-18T10:08:24;21.03;;;14.17;;
27145;SDS011;17980;51.744;7.190;2022-12-18T10:11:09;24.23;;;15.63;;
27145;SDS011;17980;51.744;7.190;2022-12-18T10:13:41;23.90;;;15.53;;
27145;SDS011;17980;51.744;7.190;2022-12-18T10:16:19;26.03;;;16.47;;
27145;SDS011;17980;51.744;7.190;2022-12-18T10:18:57;27.10;;;16.57;;
27145;SDS011;17980;51.744;7.190;2022-12-18T10:21:31;29.90;;;17.00;;
27145;SDS011;17980;51.744;7.190;2022-12-18T10:24:12;27.70;;;17.77;;
27145;SDS011;17980;51.744;7.190;2022-12-18T10:26:41;25.87;;;17.30;;
27145;SDS011;17980;51.744;7.190;2022-12-18T10:29:18;25.57;;;16.90;;
27145;SDS011;17980;51.744;7.190;2022-12-18T10:31:46;34.43;;;19.10;;
27145;SDS011;17980;51.744;7.190;2022-12-18T10:34:13;27.07;;;17.50;;
27145;SDS011;17980;51.744;7.190;2022-12-18T10:36:40;24.10;;;15.27;;
27145;SDS011;17980;51.744;7.190;2022-12-18T10:39:17;21.73;;;15.13;;
27145;SDS011;17980;51.744;7.190;2022-12-18T10:41:47;23.83;;;14.63;;
27145;SDS011;17980;51.744;7.190;2022-12-18T10:44:18;25.00;;;15.17;;
27145;SDS011;17980;51.744;7.190;2022-12-18T10:47:03;24.33;;;15.10;;
27145;SDS011;17980;51.744;7.190;2022-12-18T10:49:30;22.17;;;14.93;;
27145;SDS011;17980;51.744;7.190;2022-12-18T10:52:06;24.00;;;15.40;;
27145;SDS011;17980;51.744;7.190;2022-12-18T10:54:38;25.70;;;15.60;;
27145;SDS011;17980;51.744;7.190;2022-12-18T10:57:30;22.37;;;15.80;;
27145;SDS011;17980;51.744;7.190;2022-12-18T11:00:01;23.93;;;15.80;;
27145;SDS011;17980;51.744;7.190;2022-12-18T11:02:50;25.90;;;15.93;;
27145;SDS011;17980;51.744;7.190;2022-12-18T11:05:25;23.00;;;15.03;;
27145;SDS011;17980;51.744;7.190;2022-12-18T11:07:55;23.03;;;15.73;;
27145;SDS011;17980;51.744;7.190;2022-12-18T11:10:25;21.87;;;15.43;;
27145;SDS011;17980;51.744;7.190;2022-12-18T11:12:55;25.30;;;16.27;;
27145;SDS011;17980;51.744;7.190;2022-12-18T11:15:33;26.27;;;16.20;;
27145;SDS011;17980;51.744;7.190;2022-12-18T11:18:02;20.50;;;15.03;;
27145;SDS011;17980;51.744;7.190;2022-12-18T11:20:31;22.50;;;15.10;;
27145;SDS011;17980;51.744;7.190;2022-12-18T11:23:00;21.97;;;14.20;;
27145;SDS011;17980;51.744;7.190;2022-12-18T11:25:37;24.53;;;15.17;;
27145;SDS011;17980;51.744;7.190;2022-12-18T11:28:06;24.77;;;14.77;;
27145;SDS011;17980;51.744;7.190;2022-12-18T11:30:45;20.37;;;13.33;;
27145;SDS011;17980;51.744;7.190;2022-12-18T11:33:13;32.10;;;22.60;;
27145;SDS011;17980;51.744;7.190;2022-12-18T11:35:51;20.90;;;14.40;;
27145;SDS011;17980;51.744;7.190;2022-12-18T11:38:21;20.60;;;13.73;;
27145;SDS011;17980;51.744;7.190;2022-12-18T11:40:53;21.03;;;14.60;;
27145;SDS011;17980;51.744;7.190;2022-12-18T11:43:25;18.77;;;14.43;;
27145;SDS011;17980;51.744;7.190;2022-12-18T11:46:03;21.27;;;13.57;;
27145;SDS011;17980;51.744;7.190;2022-12-18T11:48:34;27.10;;;17.43;;
27145;SDS011;17980;51.744;7.190;2022-12-18T11:51:14;30.50;;;20.90;;
27145;SDS011;17980;51.744;7.190;2022-12-18T11:56:27;49.87;;;30.73;;
27145;SDS011;17980;51.744;7.190;2022-12-18T11:59:00;30.60;;;22.37;;
27145;SDS011;17980;51.744;7.190;2022-12-18T12:01:34;30.47;;;23.13;;
27145;SDS011;17980;51.744;7.190;2022-12-18T12:04:19;18.97;;;13.80;;
27145;SDS011;17980;51.744;7.190;2022-12-18T12:07:04;28.40;;;18.53;;
27145;SDS011;17980;51.744;7.190;2022-12-18T12:09:45;23.47;;;16.50;;
27145;SDS011;17980;51.744;7.190;2022-12-18T12:12:18;23.60;;;16.77;;
27145;SDS011;17980;51.744;7.190;2022-12-18T12:14:53;23.90;;;14.93;;
27145;SDS011;17980;51.744;7.190;2022-12-18T12:17:25;19.97;;;13.77;;
27145;SDS011;17980;51.744;7.190;2022-12-18T12:19:58;18.00;;;13.33;;
27145;SDS011;17980;51.744;7.190;2022-12-18T12:22:29;17.63;;;12.37;;
27145;SDS011;17980;51.744;7.190;2022-12-18T12:25:03;19.33;;;12.37;;
27145;SDS011;17980;51.744;7.190;2022-12-18T12:27:38;17.13;;;11.73;;
27145;SDS011;17980;51.744;7.190;2022-12-18T12:30:09;18.50;;;12.97;;
27145;SDS011;17980;51.744;7.190;2022-12-18T12:32:53;17.20;;;13.10;;
27145;SDS011;17980;51.744;7.190;2022-12-18T12:35:46;16.03;;;11.63;;
27145;SDS011;17980;51.744;7.190;2022-12-18T12:38:16;14.47;;;10.73;;
27145;SDS011;17980;51.744;7.190;2022-12-18T12:40:54;14.43;;;10.47;;
27145;SDS011;17980;51.744;7.190;2022-12-18T12:43:27;15.23;;;10.70;;
27145;SDS011;17980;51.744;7.190;2022-12-18T12:46:08;15.07;;;10.60;;
27145;SDS011;17980;51.744;7.190;2022-12-18T12:48:39;13.40;;;10.40;;
27145;SDS011;17980;51.744;7.190;2022-12-18T12:51:18;14.83;;;10.67;;
27145;SDS011;17980;51.744;7.190;2022-12-18T12:53:48;16.17;;;10.67;;
27145;SDS011;17980;51.744;7.190;2022-12-18T12:56:31;14.37;;;10.70;;
27145;SDS011;17980;51.744;7.190;2022-12-18T12:59:01;14.77;;;11.07;;
27145;SDS011;17980;51.744;7.190;2022-12-18T13:01:40;18.50;;;11.43;;
27145;SDS011;17980;51.744;7.190;2022-12-18T13:04:14;15.10;;;10.43;;
27145;SDS011;17980;51.744;7.190;2022-12-18T13:06:45;14.27;;;10.07;;
27145;SDS011;17980;51.744;7.190;2022-12-18T13:09:15;16.67;;;10.93;;
27145;SDS011;17980;51.744;7.190;2022-12-18T13:11:51;15.37;;;9.90;;
27145;SDS011;17980;51.744;7.190;2022-12-18T13:17:17;13.33;;;9.17;;
27145;SDS011;17980;51.744;7.190;2022-12-18T13:22:42;11.90;;;9.23;;
27145;SDS011;17980;51.744;7.190;2022-12-18T13:25:31;14.10;;;9.27;;
27145;SDS011;17980;51.744;7.190;2022-12-18T13:28:10;9.10;;;7.30;;
27145;SDS011;17980;51.744;7.190;2022-12-18T13:30:53;10.43;;;7.53;;
27145;SDS011;17980;51.744;7.190;2022-12-18T13:36:34;10.00;;;7.07;;
27145;SDS011;17980;51.744;7.190;2022-12-18T13:42:37;10.90;;;7.33;;
27145;SDS011;17980;51.744;7.190;2022-12-18T13:48:21;7.47;;;6.20;;
27145;SDS011;17980;51.744;7.190;2022-12-18T13:50:57;10.53;;;6.17;;
27145;SDS011;17980;51.744;7.190;2022-12-18T13:58:47;8.70;;;6.67;;
27145;SDS011;17980;51.744;7.190;2022-12-18T14:01:34;8.20;;;6.27;;
27145;SDS011;17980;51.744;7.190;2022-12-18T14:04:12;10.13;;;6.47;;
27145;SDS011;17980;51.744;7.190;2022-12-18T14:06:47;14.87;;;7.00;;
27145;SDS011;17980;51.744;7.190;2022-12-18T14:09:29;9.80;;;6.63;;
27145;SDS011;17980;51.744;7.190;2022-12-18T14:12:11;10.20;;;7.47;;
27145;SDS011;17980;51.744;7.190;2022-12-18T14:15:03;9.07;;;7.57;;
27145;SDS011;17980;51.744;7.190;2022-12-18T14:17:40;8.40;;;6.73;;
27145;SDS011;17980;51.744;7.190;2022-12-18T14:20:13;9.47;;;7.63;;
27145;SDS011;17980;51.744;7.190;2022-12-18T14:22:43;10.27;;;8.03;;
27145;SDS011;17980;51.744;7.190;2022-12-18T14:27:51;9.57;;;7.90;;
27145;SDS011;17980;51.744;7.190;2022-12-18T14:30:27;13.73;;;9.07;;
27145;SDS011;17980;51.744;7.190;2022-12-18T14:33:01;13.17;;;9.37;;
27145;SDS011;17980;51.744;7.190;2022-12-18T14:35:39;11.50;;;7.40;;
27145;SDS011;17980;51.744;7.190;2022-12-18T14:38:19;9.87;;;7.33;;
27145;SDS011;17980;51.744;7.190;2022-12-18T14:40:57;12.43;;;7.97;;
27145;SDS011;17980;51.744;7.190;2022-12-18T14:43:26;9.63;;;7.27;;
27145;SDS011;17980;51.744;7.190;2022-12-18T14:46:03;13.10;;;7.67;;
27145;SDS011;17980;51.744;7.190;2022-12-18T14:48:34;9.67;;;7.33;;
27145;SDS011;17980;51.744;7.190;2022-12-18T14:51:05;11.37;;;8.03;;
27145;SDS011;17980;51.744;7.190;2022-12-18T14:53:43;13.00;;;9.00;;
27145;SDS011;17980;51.744;7.190;2022-12-18T14:56:16;12.63;;;8.20;;
27145;SDS011;17980;51.744;7.190;2022-12-18T14:58:54;12.87;;;8.43;;
27145;SDS011;17980;51.744;7.190;2022-12-18T15:01:24;9.93;;;7.60;;
27145;SDS011;17980;51.744;7.190;2022-12-18T15:03:54;11.80;;;8.07;;
27145;SDS011;17980;51.744;7.190;2022-12-18T15:06:25;11.73;;;8.20;;
27145;SDS011;17980;51.744;7.190;2022-12-18T15:09:04;11.40;;;8.23;;
27145;SDS011;17980;51.744;7.190;2022-12-18T15:11:35;11.40;;;7.57;;
27145;SDS011;17980;51.744;7.190;2022-12-18T15:14:22;10.83;;;7.67;;
27145;SDS011;17980;51.744;7.190;2022-12-18T15:17:01;8.07;;;6.33;;
27145;SDS011;17980;51.744;7.190;2022-12-18T15:19:35;11.37;;;7.60;;
27145;SDS011;17980;51.744;7.190;2022-12-18T15:22:20;13.07;;;7.63;;
27145;SDS011;17980;51.744;7.190;2022-12-18T15:24:50;10.33;;;8.43;;
27145;SDS011;17980;51.744;7.190;2022-12-18T15:27:20;11.27;;;8.30;;
27145;SDS011;17980;51.744;7.190;2022-12-18T15:30:02;15.63;;;8.87;;
27145;SDS011;17980;51.744;7.190;2022-12-18T15:32:47;12.73;;;8.53;;